createdAt,value
2017-12-10T00:01:50.446Z,100048
2017-12-10T00:04:19.491Z,100047
2017-12-10T00:06:47.872Z,100044
2017-12-10T00:09:17.092Z,100043
2017-12-10T00:11:48.393Z,100042
2017-12-10T00:14:17.129Z,100041
2017-12-10T00:16:47.691Z,100041
2017-12-10T00:19:15.894Z,100035
2017-12-10T00:21:44.826Z,100036
2017-12-10T00:24:14.785Z,100038
2017-12-10T00:26:44.373Z,100028
2017-12-10T00:29:14.335Z,100026
2017-12-10T00:31:42.774Z,100028
2017-12-10T00:34:11.901Z,100018
2017-12-10T00:36:40.196Z,100026
2017-12-10T00:39:09.214Z,100019
2017-12-10T00:41:37.576Z,100010
2017-12-10T00:44:06.246Z,100015
2017-12-10T00:46:35.816Z,100000
2017-12-10T00:49:04.698Z,100003
2017-12-10T00:51:33.709Z,100004
2017-12-10T00:54:02.556Z,99997
2017-12-10T00:56:30.887Z,99996
2017-12-10T00:58:59.750Z,99985
2017-12-10T01:01:29.047Z,99978
2017-12-10T01:03:57.358Z,99975
2017-12-10T01:06:30.902Z,99976
2017-12-10T01:09:00.022Z,99970
2017-12-10T01:11:28.225Z,99961
2017-12-10T01:13:56.465Z,99964
2017-12-10T01:16:24.792Z,99961
2017-12-10T01:18:53.102Z,99959
2017-12-10T01:21:21.343Z,99956
2017-12-10T01:23:49.540Z,99959
2017-12-10T01:26:18.538Z,99964
2017-12-10T01:28:46.806Z,99960
2017-12-10T01:31:15.808Z,99938
2017-12-10T01:33:44.793Z,99945
2017-12-10T01:36:13.750Z,99955
2017-12-10T01:38:41.950Z,99945
2017-12-10T01:41:11.058Z,99941
2017-12-10T01:43:39.383Z,99937
2017-12-10T01:46:07.578Z,99939
2017-12-10T01:48:35.842Z,99929
2017-12-10T01:51:04.034Z,99934
2017-12-10T01:53:32.343Z,99925
2017-12-10T01:56:00.554Z,99925
2017-12-10T01:58:28.749Z,99922
2017-12-10T02:00:56.971Z,99924
2017-12-10T02:03:25.226Z,99916
2017-12-10T02:05:54.274Z,99911
2017-12-10T02:08:22.507Z,99903
2017-12-10T02:10:51.009Z,99896
2017-12-10T02:13:19.287Z,99891
2017-12-10T02:15:47.565Z,99890
2017-12-10T02:18:15.763Z,99879
2017-12-10T02:20:43.993Z,99879
2017-12-10T02:23:12.199Z,99881
2017-12-10T02:25:40.397Z,99879
2017-12-10T02:28:08.621Z,99867
2017-12-10T02:30:36.859Z,99870
2017-12-10T02:33:05.160Z,99863
2017-12-10T02:35:33.411Z,99851
2017-12-10T02:38:02.374Z,99843
2017-12-10T02:40:30.685Z,99842
2017-12-10T02:42:59.674Z,99848
2017-12-10T02:45:28.811Z,99846
2017-12-10T02:47:57.037Z,99839
2017-12-10T02:50:26.010Z,99843
2017-12-10T02:52:54.287Z,99831
2017-12-10T02:55:23.320Z,99832
2017-12-10T02:57:51.660Z,99821
2017-12-10T03:00:20.047Z,99817
2017-12-10T03:02:49.053Z,99817
2017-12-10T03:05:18.019Z,99809
2017-12-10T03:07:46.254Z,99813
2017-12-10T03:10:14.502Z,99809
2017-12-10T03:12:42.829Z,99801
2017-12-10T03:15:11.298Z,99795
2017-12-10T03:17:40.321Z,99792
2017-12-10T03:20:09.301Z,99799
2017-12-10T03:22:37.614Z,99800
2017-12-10T03:25:06.086Z,99795
2017-12-10T03:27:34.415Z,99784
2017-12-10T03:30:02.634Z,99785
2017-12-10T03:32:31.658Z,99778
2017-12-10T03:34:59.867Z,99777
2017-12-10T03:37:32.329Z,99768
2017-12-10T03:40:00.706Z,99770
2017-12-10T03:42:28.967Z,99761
2017-12-10T03:44:57.210Z,99758
2017-12-10T03:47:25.463Z,99746
2017-12-10T03:49:54.474Z,99748
2017-12-10T03:52:22.891Z,99746
2017-12-10T03:54:51.164Z,99750
2017-12-10T03:57:19.487Z,99740
2017-12-10T03:59:47.779Z,99743
2017-12-10T04:02:16.741Z,99738
2017-12-10T04:04:45.399Z,99740
2017-12-10T04:07:15.408Z,99738
2017-12-10T04:09:43.647Z,99725
2017-12-10T04:12:11.867Z,99730
2017-12-10T04:14:40.124Z,99725
2017-12-10T04:17:08.400Z,99715
2017-12-10T04:19:36.646Z,99717
2017-12-10T04:22:04.898Z,99714
2017-12-10T04:24:33.207Z,99711
2017-12-10T04:27:01.496Z,99713
2017-12-10T04:29:29.764Z,99711
2017-12-10T04:31:58.023Z,99700
2017-12-10T04:34:27.008Z,99702
2017-12-10T04:36:56.033Z,99699
2017-12-10T04:39:24.355Z,99700
2017-12-10T04:41:52.572Z,99695
2017-12-10T04:44:20.811Z,99688
2017-12-10T04:46:49.042Z,99689
2017-12-10T04:49:17.266Z,99677
2017-12-10T04:51:46.260Z,99676
2017-12-10T04:54:16.375Z,99677
2017-12-10T04:56:45.456Z,99675
2017-12-10T04:59:13.675Z,99671
2017-12-10T05:01:41.887Z,99667
2017-12-10T05:04:10.187Z,99661
2017-12-10T05:06:38.558Z,99655
2017-12-10T05:09:06.802Z,99655
2017-12-10T05:11:35.078Z,99652
2017-12-10T05:14:03.363Z,99650
2017-12-10T05:16:31.681Z,99649
2017-12-10T05:19:00.651Z,99645
2017-12-10T05:21:28.941Z,99637
2017-12-10T05:23:57.910Z,99636
2017-12-10T05:26:26.177Z,99631
2017-12-10T05:28:54.350Z,99630
2017-12-10T05:31:22.576Z,99622
2017-12-10T05:33:50.793Z,99614
2017-12-10T05:36:19.011Z,99612
2017-12-10T05:38:48.004Z,99604
2017-12-10T05:41:16.971Z,99603
2017-12-10T05:43:45.681Z,99593
2017-12-10T05:46:14.703Z,99588
2017-12-10T05:48:42.939Z,99580
2017-12-10T05:51:11.166Z,99580
2017-12-10T05:53:39.478Z,99574
2017-12-10T05:56:07.698Z,99561
2017-12-10T05:58:36.011Z,99568
2017-12-10T06:01:04.304Z,99565
2017-12-10T06:03:32.614Z,99560
2017-12-10T06:06:01.003Z,99556
2017-12-10T06:08:29.225Z,99551
2017-12-10T06:10:57.429Z,99543
2017-12-10T06:13:26.466Z,99533
2017-12-10T06:15:54.928Z,99532
2017-12-10T06:18:24.218Z,99523
2017-12-10T06:20:52.459Z,99523
2017-12-10T06:23:20.734Z,99528
2017-12-10T06:25:48.966Z,99501
2017-12-10T06:28:17.240Z,99501
2017-12-10T06:30:45.523Z,99502
2017-12-10T06:33:13.741Z,99489
2017-12-10T06:35:42.747Z,99491
2017-12-10T06:38:11.801Z,99482
2017-12-10T06:40:41.958Z,99483
2017-12-10T06:43:10.306Z,99475
2017-12-10T06:45:39.408Z,99478
2017-12-10T06:48:09.481Z,99469
2017-12-10T06:50:37.769Z,99461
2017-12-10T06:53:05.983Z,99454
2017-12-10T06:55:35.004Z,99444
2017-12-10T06:58:03.398Z,99438
2017-12-10T07:00:31.787Z,99433
2017-12-10T07:03:00.172Z,99432
2017-12-10T07:05:29.460Z,99424
2017-12-10T07:07:57.702Z,99424
2017-12-10T07:10:25.994Z,99412
2017-12-10T07:12:54.232Z,99411
2017-12-10T07:15:23.198Z,99397
2017-12-10T07:17:51.457Z,99399
2017-12-10T07:20:19.762Z,99396
2017-12-10T07:22:47.983Z,99385
2017-12-10T07:25:16.182Z,99383
2017-12-10T07:27:44.515Z,99377
2017-12-10T07:30:14.406Z,99372
2017-12-10T07:32:42.639Z,99361
2017-12-10T07:35:11.015Z,99363
2017-12-10T07:37:39.308Z,99356
2017-12-10T07:40:07.635Z,99358
2017-12-10T07:42:38.980Z,99352
2017-12-10T07:45:07.388Z,99350
2017-12-10T07:47:36.227Z,99347
2017-12-10T07:50:06.213Z,99341
2017-12-10T07:52:34.768Z,99352
2017-12-10T07:55:03.112Z,99343
2017-12-10T07:57:33.301Z,99340
2017-12-10T08:00:02.558Z,99346
2017-12-10T08:02:30.827Z,99350
2017-12-10T08:05:02.259Z,99342
2017-12-10T08:07:30.530Z,99344
2017-12-10T08:10:00.323Z,99329
2017-12-10T08:12:29.821Z,99332
2017-12-10T08:14:58.058Z,99318
2017-12-10T08:17:26.771Z,99329
2017-12-10T08:19:55.080Z,99313
2017-12-10T08:22:24.091Z,99312
2017-12-10T08:24:52.366Z,99313
2017-12-10T08:27:21.546Z,99300
2017-12-10T08:29:50.544Z,99295
2017-12-10T08:32:19.634Z,99291
2017-12-10T08:34:48.688Z,99283
2017-12-10T08:37:17.883Z,99287
2017-12-10T08:39:46.150Z,99278
2017-12-10T08:42:14.386Z,99282
2017-12-10T08:44:42.593Z,99270
2017-12-10T08:47:10.879Z,99256
2017-12-10T08:49:39.165Z,99248
2017-12-10T08:52:07.490Z,99250
2017-12-10T08:54:35.784Z,99245
2017-12-10T08:57:04.028Z,99233
2017-12-10T08:59:33.029Z,99229
2017-12-10T09:02:01.418Z,99220
2017-12-10T09:04:30.058Z,99221
2017-12-10T09:06:58.462Z,99212
2017-12-10T09:09:26.663Z,99209
2017-12-10T09:11:54.933Z,99213
2017-12-10T09:14:23.190Z,99198
2017-12-10T09:16:51.447Z,99189
2017-12-10T09:19:20.513Z,99193
2017-12-10T09:21:48.712Z,99183
2017-12-10T09:24:17.702Z,99169
2017-12-10T09:26:45.913Z,99159
2017-12-10T09:29:15.014Z,99146
2017-12-10T09:31:43.223Z,99137
2017-12-10T09:34:11.512Z,99141
2017-12-10T09:36:39.765Z,99128
2017-12-10T09:39:08.103Z,99118
2017-12-10T09:41:36.401Z,99114
2017-12-10T09:44:04.638Z,99102
2017-12-10T09:46:37.886Z,99102
2017-12-10T09:49:06.092Z,99085
2017-12-10T09:51:35.102Z,99088
2017-12-10T09:54:03.318Z,99070
2017-12-10T09:56:31.631Z,99062
2017-12-10T09:59:00.595Z,99054
2017-12-10T10:01:28.940Z,99043
2017-12-10T10:03:57.265Z,99031
2017-12-10T10:06:25.483Z,99010
2017-12-10T10:08:53.714Z,99013
2017-12-10T10:11:21.966Z,99001
2017-12-10T10:13:50.263Z,99001
2017-12-10T10:16:19.053Z,98995
2017-12-10T10:18:47.241Z,98992
2017-12-10T10:21:16.223Z,98985
2017-12-10T10:23:45.197Z,98980
2017-12-10T10:26:13.391Z,98981
2017-12-10T10:28:42.356Z,98962
2017-12-10T10:31:10.684Z,98957
2017-12-10T10:33:39.073Z,98946
2017-12-10T10:36:07.313Z,98935
2017-12-10T10:38:35.595Z,98939
2017-12-10T10:41:04.563Z,98920
2017-12-10T10:43:32.826Z,98917
2017-12-10T10:48:38.343Z,98907
2017-12-10T10:51:07.033Z,98902
2017-12-10T10:56:15.003Z,98883
2017-12-10T11:01:33.974Z,98866
2017-12-10T11:04:03.056Z,98853
2017-12-10T11:06:31.536Z,98842
2017-12-10T11:08:59.769Z,98834
2017-12-10T11:11:28.921Z,98830
2017-12-10T11:13:58.319Z,98816
2017-12-10T11:16:26.589Z,98820
2017-12-10T11:18:54.803Z,98817
2017-12-10T11:21:23.934Z,98809
2017-12-10T11:23:53.985Z,98788
2017-12-10T11:26:23.266Z,98780
2017-12-10T11:28:51.881Z,98769
2017-12-10T11:31:26.284Z,98764
2017-12-10T11:33:54.677Z,98751
2017-12-10T11:36:24.033Z,98746
2017-12-10T11:38:52.541Z,98737
2017-12-10T11:41:25.626Z,98739
2017-12-10T11:43:57.716Z,98733
2017-12-10T11:46:27.634Z,98713
2017-12-10T11:49:07.290Z,98708
2017-12-10T11:51:36.080Z,98707
2017-12-10T11:54:04.558Z,98695
2017-12-10T11:56:32.835Z,98689
2017-12-10T11:59:09.586Z,98675
2017-12-10T12:01:43.489Z,98673
2017-12-10T12:04:18.006Z,98665
2017-12-10T12:06:46.521Z,98657
2017-12-10T12:09:16.453Z,98650
2017-12-10T12:11:56.804Z,98651
2017-12-10T12:14:27.271Z,98645
2017-12-10T12:17:04.431Z,98633
2017-12-10T12:19:42.146Z,98631
2017-12-10T12:22:16.306Z,98621
2017-12-10T12:24:47.946Z,98611
2017-12-10T12:27:22.586Z,98607
2017-12-10T12:29:51.050Z,98603
2017-12-10T12:42:10.550Z,98572
2017-12-10T12:44:52.817Z,98555
2017-12-10T12:47:40.583Z,98555
2017-12-10T12:50:40.872Z,98546
2017-12-10T12:53:12.429Z,98527
2017-12-10T12:55:44.756Z,98520
2017-12-10T12:58:15.092Z,98514
2017-12-10T13:00:50.717Z,98505
2017-12-10T13:03:28.610Z,98495
2017-12-10T13:05:56.874Z,98485
2017-12-10T13:08:26.412Z,98480
2017-12-10T13:11:01.186Z,98469
2017-12-10T13:13:29.734Z,98471
2017-12-10T13:15:58.310Z,98448
2017-12-10T13:18:34.513Z,98451
2017-12-10T13:21:06.184Z,98437
2017-12-10T13:23:37.810Z,98430
2017-12-10T13:26:07.065Z,98427
2017-12-10T13:28:35.525Z,98421
2017-12-10T13:31:09.597Z,98423
2017-12-10T13:33:38.995Z,98426
2017-12-10T13:36:07.472Z,98411
2017-12-10T13:38:36.780Z,98401
2017-12-10T13:41:07.416Z,98401
2017-12-10T13:43:38.732Z,98399
2017-12-10T13:46:07.084Z,98393
2017-12-10T13:48:44.718Z,98388
2017-12-10T13:51:21.150Z,98377
2017-12-10T13:53:49.598Z,98382
2017-12-10T13:56:17.988Z,98375
2017-12-10T13:58:50.077Z,98357
2017-12-10T14:01:45.977Z,98355
2017-12-10T14:04:15.234Z,98349
2017-12-10T14:06:43.588Z,98335
2017-12-10T14:09:15.266Z,98344
2017-12-10T14:11:45.410Z,98339
2017-12-10T14:14:19.832Z,98335
2017-12-10T14:16:48.214Z,98320
2017-12-10T14:19:17.818Z,98324
2017-12-10T14:21:46.171Z,98319
2017-12-10T14:24:14.607Z,98319
2017-12-10T14:29:29.261Z,98315
2017-12-10T14:31:58.380Z,98308
2017-12-10T14:34:28.066Z,98304
2017-12-10T14:36:56.406Z,98304
2017-12-10T14:39:24.761Z,98300
2017-12-10T14:41:53.124Z,98309
2017-12-10T14:44:22.154Z,98309
2017-12-10T14:46:50.512Z,98305
2017-12-10T14:49:22.457Z,98299
2017-12-10T14:51:51.577Z,98308
2017-12-10T14:54:19.948Z,98286
2017-12-10T14:56:48.959Z,98295
2017-12-10T15:01:56.711Z,98294
2017-12-10T15:04:25.135Z,98271
2017-12-10T15:07:19.196Z,98284
2017-12-10T15:09:49.633Z,98274
2017-12-10T15:12:24.489Z,98286
2017-12-10T15:14:53.034Z,98262
2017-12-10T15:17:23.682Z,98262
2017-12-10T15:19:52.349Z,98256
2017-12-10T15:22:28.033Z,98255
2017-12-10T15:25:00.342Z,98256
2017-12-10T15:27:31.243Z,98257
2017-12-10T15:30:00.768Z,98257
2017-12-10T15:32:29.211Z,98241
2017-12-10T15:34:58.393Z,98237
2017-12-10T15:37:28.838Z,98227
2017-12-10T15:40:00.374Z,98225
2017-12-10T15:42:29.947Z,98221
2017-12-10T15:44:58.390Z,98211
2017-12-10T15:57:17.198Z,98193
2017-12-10T15:59:54.707Z,98175
2017-12-10T16:02:32.964Z,98166
2017-12-10T16:05:04.332Z,98160
2017-12-10T16:07:32.862Z,98157
2017-12-10T16:10:05.704Z,98152
2017-12-10T16:12:35.642Z,98144
2017-12-10T16:15:07.109Z,98136
2017-12-10T16:17:50.367Z,98133
2017-12-10T16:20:19.626Z,98132
2017-12-10T16:22:50.394Z,98127
2017-12-10T16:25:44.058Z,98118
2017-12-10T16:28:13.929Z,98105
2017-12-10T16:30:45.647Z,98106
2017-12-10T16:36:34.472Z,98091
2017-12-10T16:39:18.193Z,98087
2017-12-10T16:41:48.421Z,98077
2017-12-10T16:44:20.186Z,98067
2017-12-10T16:46:48.608Z,98068
2017-12-10T16:49:25.243Z,98058
2017-12-10T16:52:01.814Z,98050
2017-12-10T16:54:44.965Z,98051
2017-12-10T16:57:14.431Z,98038
2017-12-10T16:59:42.748Z,98041
2017-12-10T17:02:12.753Z,98033
2017-12-10T17:04:41.924Z,98043
2017-12-10T17:07:15.844Z,98031
2017-12-10T17:09:46.580Z,98025
2017-12-10T17:12:16.313Z,98012
2017-12-10T17:14:45.334Z,97998
2017-12-10T17:17:14.169Z,98003
2017-12-10T17:19:43.166Z,97992
2017-12-10T17:22:11.811Z,97987
2017-12-10T17:24:41.809Z,97986
2017-12-10T17:27:10.177Z,97982
2017-12-10T17:29:43.022Z,97978
2017-12-10T17:32:12.243Z,97965
2017-12-10T17:34:44.224Z,97964
2017-12-10T17:37:13.405Z,97959
2017-12-10T17:39:44.542Z,97952
2017-12-10T17:42:12.938Z,97955
2017-12-10T17:44:50.352Z,97955
2017-12-10T17:47:20.988Z,97952
2017-12-10T17:49:49.955Z,97948
2017-12-10T17:52:20.906Z,97931
2017-12-10T17:54:51.533Z,97930
2017-12-10T17:57:20.216Z,97924
2017-12-10T17:59:49.249Z,97921
2017-12-10T18:02:20.543Z,97910
2017-12-10T18:04:48.949Z,97902
2017-12-10T18:10:20.392Z,97901
2017-12-10T18:12:58.172Z,97892
2017-12-10T18:15:32.767Z,97887
2017-12-10T18:18:01.185Z,97890
2017-12-10T18:20:29.523Z,97883
2017-12-10T18:22:57.795Z,97868
2017-12-10T18:25:26.049Z,97875
2017-12-10T18:27:54.253Z,97863
2017-12-10T18:30:22.912Z,97861
2017-12-10T18:32:58.900Z,97865
2017-12-10T18:35:27.167Z,97861
2017-12-10T18:38:03.472Z,97853
2017-12-10T18:40:31.718Z,97849
2017-12-10T18:43:00.172Z,97856
2017-12-10T18:45:28.556Z,97850
2017-12-10T18:47:57.695Z,97845
2017-12-10T18:50:27.761Z,97836
2017-12-10T18:53:04.592Z,97830
2017-12-10T18:55:33.788Z,97831
2017-12-10T18:58:05.099Z,97819
2017-12-10T19:00:33.362Z,97817
2017-12-10T19:03:03.309Z,97813
2017-12-10T19:05:33.394Z,97811
2017-12-10T19:08:01.674Z,97810
2017-12-10T19:10:29.931Z,97807
2017-12-10T19:12:58.167Z,97802
2017-12-10T19:15:26.495Z,97804
2017-12-10T19:17:54.963Z,97796
2017-12-10T19:20:23.919Z,97786
2017-12-10T19:22:52.471Z,97789
2017-12-10T19:25:21.703Z,97780
2017-12-10T19:27:51.157Z,97773
2017-12-10T19:30:19.580Z,97772
2017-12-10T19:35:41.186Z,97769
2017-12-10T19:41:10.437Z,97751
2017-12-10T19:43:38.742Z,97758
2017-12-10T19:46:07.463Z,97762
2017-12-10T19:48:36.662Z,97759
2017-12-10T19:51:08.048Z,97756
2017-12-10T19:53:37.702Z,97750
2017-12-10T19:56:09.906Z,97730
2017-12-10T19:58:47.587Z,97732
2017-12-10T20:01:19.319Z,97729
2017-12-10T20:04:06.697Z,97725
2017-12-10T20:09:16.858Z,97716
2017-12-10T20:12:04.965Z,97709
2017-12-10T20:14:47.450Z,97711
2017-12-10T20:20:27.389Z,97714
2017-12-10T20:25:37.546Z,97700
2017-12-10T20:28:22.666Z,97694
2017-12-10T20:30:52.658Z,97697
2017-12-10T20:33:21.119Z,97695
2017-12-10T20:35:56.936Z,97693
2017-12-10T20:38:28.513Z,97685
2017-12-10T20:40:57.656Z,97684
2017-12-10T20:43:30.310Z,97679
2017-12-10T20:46:00.048Z,97680
2017-12-10T20:48:28.892Z,97675
2017-12-10T20:50:58.503Z,97666
2017-12-10T20:53:26.919Z,97660
2017-12-10T20:55:56.325Z,97655
2017-12-10T20:58:24.650Z,97659
2017-12-10T21:00:56.052Z,97659
2017-12-10T21:03:24.670Z,97660
2017-12-10T21:05:53.004Z,97652
2017-12-10T21:08:22.419Z,97655
2017-12-10T21:10:51.012Z,97652
2017-12-10T21:13:22.289Z,97649
2017-12-10T21:16:07.372Z,97643
2017-12-10T21:18:36.900Z,97632
2017-12-10T21:21:06.213Z,97647
2017-12-10T21:23:36.199Z,97636
2017-12-10T21:26:04.588Z,97639
2017-12-10T21:28:34.864Z,97639
2017-12-10T21:31:06.235Z,97630
2017-12-10T21:33:34.616Z,97630
2017-12-10T21:36:05.653Z,97617
2017-12-10T21:38:38.695Z,97614
2017-12-10T21:41:10.791Z,97607
2017-12-10T21:43:51.406Z,97610
2017-12-10T21:46:20.767Z,97615
2017-12-10T21:48:49.159Z,97619
2017-12-10T21:51:19.062Z,97613
2017-12-10T21:53:47.915Z,97608
2017-12-10T21:56:20.049Z,97602
2017-12-10T21:58:49.326Z,97597
2017-12-10T22:01:18.459Z,97609
2017-12-10T22:03:46.823Z,97604
2017-12-10T22:06:17.902Z,97604
2017-12-10T22:08:48.965Z,97585
2017-12-10T22:11:19.211Z,97593
2017-12-10T22:13:50.139Z,97589
2017-12-10T22:19:05.941Z,97596
2017-12-10T22:21:35.124Z,97579
2017-12-10T22:24:04.361Z,97581
2017-12-10T22:26:41.644Z,97575
2017-12-10T22:29:13.695Z,97574
2017-12-10T22:31:43.259Z,97575
2017-12-10T22:34:13.729Z,97559
2017-12-10T22:36:46.529Z,97567
2017-12-10T22:39:26.843Z,97551
2017-12-10T22:41:58.470Z,97556
2017-12-10T22:44:29.492Z,97560
2017-12-10T22:47:02.301Z,97551
2017-12-10T22:52:25.817Z,97554
